Time;durP1;ratioP1;P1;durP2;ratioP2;P2;SDS_P1;SDS_P2;PMS_P1;PMS_P2;Temp;Humidity;BMP_temperature;BMP_pressure;BME280_temperature;BME280_humidity;BME280_pressure;Samples;Min_cycle;Max_cycle;Signal;HPM_P1;HPM_P2
2022/06/17 00:00:13;;;;;;;2.67;2.00;;;22.30;48.50;;;;;;6209375;28;20022;-77
2022/06/17 00:03:14;;;;;;;2.50;2.03;;;22.30;48.50;;;;;;6196274;28;20150;-76
2022/06/17 00:06:15;;;;;;;2.78;2.30;;;22.30;48.50;;;;;;6206393;28;20030;-76
2022/06/17 00:09:18;;;;;;;2.42;2.10;;;22.30;48.60;;;;;;6219959;28;20022;-76
2022/06/17 00:12:19;;;;;;;4.03;2.53;;;22.30;48.50;;;;;;6183249;28;20096;-77
2022/06/17 00:15:20;;;;;;;3.63;2.53;;;22.30;48.50;;;;;;6194606;28;20018;-76
2022/06/17 00:18:23;;;;;;;3.05;2.60;;;22.30;48.70;;;;;;6218059;28;20030;-76
2022/06/17 00:21:24;;;;;;;3.25;2.45;;;22.30;48.70;;;;;;6203947;28;20062;-76
2022/06/17 00:24:27;;;;;;;2.72;2.20;;;22.30;48.80;;;;;;6193729;28;20034;-76
2022/06/17 00:27:28;;;;;;;2.83;2.50;;;22.30;48.80;;;;;;6213066;28;20026;-76
2022/06/17 00:30:32;;;;;;;3.08;2.20;;;22.30;49.00;;;;;;6215551;28;20390;-76
2022/06/17 00:33:32;;;;;;;2.50;2.22;;;22.30;49.20;;;;;;6191735;28;20030;-76
2022/06/17 00:36:34;;;;;;;2.72;2.17;;;22.30;49.40;;;;;;6193897;28;20023;-76
2022/06/17 00:39:35;;;;;;;3.60;2.45;;;22.30;49.50;;;;;;6193423;28;20019;-76
2022/06/17 00:42:36;;;;;;;2.90;2.20;;;22.30;49.50;;;;;;6211281;28;20034;-76
2022/06/17 00:45:46;;;;;;;3.22;2.55;;;22.20;49.50;;;;;;6216610;28;20030;-76
2022/06/17 00:48:55;;;;;;;3.30;2.58;;;22.30;49.70;;;;;;6191495;28;20030;-76
2022/06/17 00:52:00;;;;;;;3.60;2.67;;;22.20;49.60;;;;;;6205306;28;20021;-77
2022/06/17 00:55:25;;;;;;;2.95;2.40;;;22.20;49.60;;;;;;6220331;28;20112;-76
2022/06/17 00:59:14;;;;;;;4.50;2.75;;;22.30;49.80;;;;;;6197271;28;20405;-76
2022/06/17 01:02:15;;;;;;;3.17;2.15;;;22.20;49.80;;;;;;6197447;28;20043;-76
2022/06/17 01:05:21;;;;;;;3.45;2.53;;;22.20;49.80;;;;;;6195996;28;20025;-76
2022/06/17 01:11:47;;;;;;;4.20;3.00;;;22.20;49.70;;;;;;6212565;28;20030;-76
2022/06/17 01:14:48;;;;;;;2.78;2.30;;;22.20;49.90;;;;;;6192223;28;20033;-76
2022/06/17 01:17:49;;;;;;;2.83;2.40;;;22.20;49.90;;;;;;6204063;28;20032;-76
2022/06/17 01:20:55;;;;;;;2.88;2.30;;;22.20;49.90;;;;;;6211287;28;20040;-76
2022/06/17 01:23:56;;;;;;;3.05;2.50;;;22.20;50.10;;;;;;6195337;28;20034;-76
2022/06/17 01:26:57;;;;;;;2.42;2.20;;;22.20;50.10;;;;;;6201609;28;20056;-77
2022/06/17 01:29:58;;;;;;;3.60;2.80;;;22.20;50.10;;;;;;6219147;28;20033;-77
2022/06/17 01:33:03;;;;;;;3.35;2.47;;;22.20;50.10;;;;;;6204063;28;20804;-75
2022/06/17 01:36:19;;;;;;;3.03;2.42;;;22.20;50.10;;;;;;6192695;28;20469;-76
2022/06/17 01:39:20;;;;;;;2.70;2.22;;;22.20;50.10;;;;;;6194796;28;20090;-76
2022/06/17 01:42:22;;;;;;;3.05;2.60;;;22.20;50.10;;;;;;6195050;28;20557;-78
2022/06/17 01:45:23;;;;;;;3.10;2.42;;;22.20;50.20;;;;;;6195687;28;20113;-75
2022/06/17 01:48:29;;;;;;;3.47;2.50;;;22.20;50.20;;;;;;6214998;28;20026;-77
2022/06/17 01:51:34;;;;;;;3.05;2.45;;;22.20;50.20;;;;;;6224388;28;20034;-76
2022/06/17 01:54:42;;;;;;;2.80;2.07;;;22.20;50.20;;;;;;6218368;28;20018;-76
2022/06/17 01:57:58;;;;;;;3.35;2.53;;;22.20;50.30;;;;;;6212014;28;20503;-76
2022/06/17 02:01:01;;;;;;;3.05;2.60;;;22.20;50.30;;;;;;6197468;28;20034;-76
2022/06/17 02:04:09;;;;;;;3.15;2.60;;;22.20;50.30;;;;;;6218135;28;20038;-75
2022/06/17 02:07:16;;;;;;;3.15;2.00;;;22.20;50.40;;;;;;6197750;28;20030;-77
2022/06/17 02:10:17;;;;;;;3.40;2.70;;;22.20;50.40;;;;;;6220505;28;20111;-76
2022/06/17 02:13:18;;;;;;;2.42;2.03;;;22.20;50.40;;;;;;6210501;28;20509;-76
2022/06/17 02:16:20;;;;;;;3.22;2.17;;;22.20;50.40;;;;;;6197224;28;20022;-77
2022/06/17 02:19:24;;;;;;;2.90;2.33;;;22.10;50.30;;;;;;6216385;28;20038;-76
2022/06/17 02:22:29;;;;;;;3.13;2.40;;;22.20;50.40;;;;;;6220208;28;20112;-76
2022/06/17 02:25:37;;;;;;;3.05;2.40;;;22.20;50.50;;;;;;6194794;28;20034;-77
2022/06/17 02:28:39;;;;;;;2.60;2.28;;;22.20;50.50;;;;;;6210468;28;20032;-76
2022/06/17 02:31:42;;;;;;;2.60;2.13;;;22.10;50.50;;;;;;6216382;28;20083;-76
2022/06/17 02:34:58;;;;;;;2.28;2.00;;;22.20;50.60;;;;;;6184811;28;20022;-76
2022/06/17 02:37:59;;;;;;;2.72;2.13;;;22.20;50.60;;;;;;6196978;28;20049;-77
2022/06/17 02:41:07;;;;;;;3.08;2.30;;;22.20;50.60;;;;;;6196255;28;20521;-76
2022/06/17 02:44:29;;;;;;;3.38;2.30;;;22.10;50.60;;;;;;6212055;28;20037;-77
2022/06/17 02:47:31;;;;;;;2.60;2.15;;;22.10;50.70;;;;;;6223052;28;20068;-77
2022/06/17 02:50:32;;;;;;;2.58;2.17;;;22.10;50.70;;;;;;6198649;28;20073;-76
2022/06/17 02:53:38;;;;;;;3.50;2.75;;;22.10;50.70;;;;;;6203905;28;20041;-76
2022/06/17 02:56:44;;;;;;;3.30;2.58;;;22.10;50.70;;;;;;6217061;28;20022;-76
2022/06/17 02:59:51;;;;;;;4.07;2.78;;;22.10;50.70;;;;;;6202188;28;20041;-76
2022/06/17 03:02:56;;;;;;;3.22;2.30;;;22.10;50.70;;;;;;6197114;28;20389;-76
2022/06/17 03:05:57;;;;;;;2.83;2.17;;;22.10;50.70;;;;;;6219932;28;20049;-76
2022/06/17 03:09:01;;;;;;;2.85;2.30;;;22.10;50.70;;;;;;6210920;28;20054;-76
2022/06/17 03:12:18;;;;;;;3.00;2.20;;;22.10;50.70;;;;;;6195772;28;20014;-76
2022/06/17 03:15:20;;;;;;;2.88;2.30;;;22.10;50.70;;;;;;6215260;28;20034;-77
2022/06/17 03:18:21;;;;;;;2.90;2.25;;;22.10;50.80;;;;;;6213976;28;20436;-76
2022/06/17 03:21:24;;;;;;;3.05;2.20;;;22.10;50.80;;;;;;6194748;28;20081;-76
2022/06/17 03:24:31;;;;;;;2.90;2.17;;;22.10;50.80;;;;;;6210321;28;20117;-76
2022/06/17 03:27:44;;;;;;;2.63;2.10;;;22.10;50.80;;;;;;6196354;28;20516;-76
2022/06/17 03:30:54;;;;;;;2.53;2.20;;;22.10;50.80;;;;;;6192096;28;20523;-76
2022/06/17 03:34:04;;;;;;;2.80;2.22;;;22.10;50.90;;;;;;6196216;28;20101;-76
2022/06/17 03:37:17;;;;;;;3.10;2.30;;;22.10;50.80;;;;;;6196493;28;20635;-76
2022/06/17 03:40:48;;;;;;;2.22;2.03;;;22.10;50.80;;;;;;6212615;28;20029;-76
2022/06/17 03:44:04;;;;;;;3.10;2.47;;;22.10;50.90;;;;;;6211432;28;20042;-76
2022/06/17 03:47:19;;;;;;;2.88;2.28;;;22.10;50.90;;;;;;6195671;28;20030;-76
2022/06/17 03:50:36;;;;;;;3.20;2.65;;;22.10;50.90;;;;;;6210937;28;20026;-76
2022/06/17 03:53:37;;;;;;;2.70;2.10;;;22.10;50.90;;;;;;6208619;28;20104;-76
2022/06/17 03:56:42;;;;;;;3.25;2.53;;;22.10;50.90;;;;;;6219970;28;20026;-76
2022/06/17 03:59:48;;;;;;;3.30;2.53;;;22.10;51.00;;;;;;6213226;28;20027;-76
2022/06/17 04:02:50;;;;;;;3.00;2.42;;;22.10;50.90;;;;;;6196624;28;20038;-76
2022/06/17 04:05:56;;;;;;;3.05;2.35;;;22.10;51.00;;;;;;6212451;28;20040;-77
2022/06/17 04:09:01;;;;;;;2.70;2.13;;;22.10;51.00;;;;;;6214739;28;20026;-77
2022/06/17 04:12:14;;;;;;;2.97;2.58;;;22.10;51.00;;;;;;6194966;28;20106;-76
2022/06/17 04:15:30;;;;;;;2.92;2.20;;;22.00;50.90;;;;;;6201965;28;20224;-76
2022/06/17 04:18:35;;;;;;;2.92;2.10;;;22.10;51.00;;;;;;6218264;28;20080;-76
2022/06/17 04:21:35;;;;;;;3.05;2.30;;;22.10;51.10;;;;;;6195833;28;20481;-76
2022/06/17 04:24:36;;;;;;;3.10;2.47;;;22.10;51.10;;;;;;6198387;28;20141;-76
2022/06/17 04:31:00;;;;;;;3.42;2.50;;;22.10;51.10;;;;;;6206290;28;20038;-77
2022/06/17 04:34:10;;;;;;;3.33;2.50;;;22.10;51.10;;;;;;6194087;28;20034;-77
2022/06/17 04:37:21;;;;;;;3.00;2.35;;;22.10;51.10;;;;;;6196896;28;20042;-76
2022/06/17 04:40:35;;;;;;;2.88;2.22;;;22.10;51.20;;;;;;6204108;28;20111;-76
2022/06/17 04:43:41;;;;;;;2.88;2.40;;;22.00;51.00;;;;;;6220289;28;20030;-76
2022/06/17 04:46:47;;;;;;;3.65;2.58;;;22.10;51.20;;;;;;6118139;29;20036;-76
2022/06/17 04:49:57;;;;;;;3.17;2.30;;;22.10;51.10;;;;;;6121169;29;20871;-77
2022/06/17 04:52:58;;;;;;;3.38;2.40;;;22.10;51.10;;;;;;6120244;29;20030;-76
2022/06/17 04:56:01;;;;;;;3.33;2.53;;;22.10;51.20;;;;;;6119808;29;20043;-76
2022/06/17 05:02:58;;;;;;;3.00;2.35;;;22.10;51.20;;;;;;6095380;29;20095;-76
2022/06/17 05:05:58;;;;;;;3.20;2.50;;;22.10;51.20;;;;;;6105652;29;20054;-76
2022/06/17 05:09:14;;;;;;;2.55;2.05;;;22.10;51.20;;;;;;6104861;29;20032;-76
2022/06/17 05:12:38;;;;;;;3.08;2.30;;;22.00;51.10;;;;;;6116978;29;20036;-76
2022/06/17 05:15:38;;;;;;;2.70;2.33;;;22.10;51.20;;;;;;6118503;29;20418;-76
2022/06/17 05:18:40;;;;;;;3.45;2.60;;;22.00;51.20;;;;;;6169684;28;20085;-76
2022/06/17 05:21:40;;;;;;;3.15;2.40;;;22.10;51.20;;;;;;6213356;28;20104;-77
2022/06/17 05:24:42;;;;;;;2.65;2.25;;;22.10;51.20;;;;;;6224558;28;20026;-77
2022/06/17 05:27:42;;;;;;;3.22;2.40;;;22.00;51.10;;;;;;6224173;28;20073;-76
2022/06/17 05:30:51;;;;;;;3.00;2.13;;;22.00;51.20;;;;;;6220205;28;20235;-76
2022/06/17 05:33:51;;;;;;;2.88;2.20;;;22.00;51.20;;;;;;6199808;28;20478;-76
2022/06/17 05:36:52;;;;;;;3.00;2.30;;;22.10;51.20;;;;;;6197077;28;20042;-77
2022/06/17 05:39:54;;;;;;;2.65;2.20;;;22.00;51.20;;;;;;6198950;28;20470;-76
2022/06/17 05:42:55;;;;;;;2.83;2.50;;;22.00;51.20;;;;;;6219564;28;20042;-76
2022/06/17 05:45:56;;;;;;;3.30;2.67;;;22.00;51.20;;;;;;6215112;28;20097;-76
2022/06/17 05:48:56;;;;;;;3.80;2.88;;;22.00;51.20;;;;;;6196133;28;20393;-76
2022/06/17 05:51:58;;;;;;;3.47;2.63;;;22.00;51.20;;;;;;6221517;28;20082;-76
2022/06/17 05:55:04;;;;;;;3.13;2.22;;;22.00;51.20;;;;;;6223777;28;20021;-77
2022/06/17 05:58:05;;;;;;;3.75;2.83;;;22.10;51.00;;;;;;6204426;28;20022;-77
2022/06/17 06:01:06;;;;;;;2.80;2.15;;;22.10;51.00;;;;;;6210964;28;20164;-78
2022/06/17 06:04:06;;;;;;;2.67;2.42;;;22.10;51.10;;;;;;6225291;28;20046;-77
2022/06/17 06:07:07;;;;;;;5.25;2.30;;;22.10;51.20;;;;;;6177805;28;21809;-76
2022/06/17 06:10:09;;;;;;;2.80;2.28;;;22.10;51.20;;;;;;6215747;28;20064;-77
2022/06/17 06:13:18;;;;;;;3.38;2.65;;;22.10;51.10;;;;;;6218806;28;20030;-76
2022/06/17 06:16:19;;;;;;;3.13;2.40;;;22.10;51.10;;;;;;6222161;28;20030;-76
2022/06/17 06:19:20;;;;;;;2.72;2.15;;;22.10;51.00;;;;;;6225059;28;20890;-78
2022/06/17 06:22:20;;;;;;;2.80;2.25;;;22.10;50.90;;;;;;6215264;28;20027;-77
2022/06/17 06:25:21;;;;;;;2.80;2.10;;;22.20;50.80;;;;;;6201104;28;20072;-76
2022/06/17 06:28:26;;;;;;;2.92;2.42;;;22.20;50.90;;;;;;6200622;28;20022;-78
2022/06/17 06:31:36;;;;;;;3.28;2.50;;;22.20;51.00;;;;;;6203442;28;20030;-77
2022/06/17 06:34:37;;;;;;;3.08;2.20;;;22.20;51.10;;;;;;6225272;28;20037;-77
2022/06/17 06:37:38;;;;;;;3.42;2.75;;;22.10;51.10;;;;;;6211573;28;20054;-77
2022/06/17 06:40:39;;;;;;;2.63;2.17;;;22.10;51.20;;;;;;6199613;28;20077;-77
2022/06/17 06:43:40;;;;;;;4.03;2.50;;;22.10;51.20;;;;;;6213457;28;20113;-77
2022/06/17 06:46:41;;;;;;;3.05;2.50;;;22.10;51.20;;;;;;6223860;28;20133;-77
2022/06/17 06:49:42;;;;;;;3.95;2.72;;;22.10;51.30;;;;;;6204129;28;20029;-76
2022/06/17 06:52:42;;;;;;;3.25;2.35;;;22.10;51.30;;;;;;6216001;28;20388;-77
2022/06/17 06:55:43;;;;;;;2.28;1.88;;;22.10;51.30;;;;;;6223678;28;20472;-77
2022/06/17 06:58:44;;;;;;;6.93;2.45;;;22.10;52.20;;;;;;6207379;28;20034;-78
2022/06/17 07:01:45;;;;;;;7.40;2.67;;;22.10;49.70;;;;;;6200776;28;20388;-78
2022/06/17 07:04:46;;;;;;;5.70;2.22;;;22.20;49.10;;;;;;6195910;28;20041;-77
2022/06/17 07:07:47;;;;;;;7.18;2.80;;;22.30;48.50;;;;;;6181897;28;20026;-78
2022/06/17 07:10:49;;;;;;;5.47;2.35;;;22.30;48.00;;;;;;6204151;28;20030;-78
2022/06/17 07:13:50;;;;;;;4.80;2.70;;;22.30;47.60;;;;;;6208194;28;20045;-77
2022/06/17 07:16:50;;;;;;;7.30;2.05;;;22.40;47.50;;;;;;6203792;28;20021;-78
2022/06/17 07:19:51;;;;;;;5.57;2.08;;;22.40;47.50;;;;;;6201389;28;20466;-79
2022/06/17 07:22:52;;;;;;;6.10;2.20;;;22.40;47.30;;;;;;6196956;28;20389;-77
2022/06/17 07:25:53;;;;;;;14.57;2.92;;;22.40;47.40;;;;;;6197663;28;20031;-78
2022/06/17 07:28:54;;;;;;;19.38;3.10;;;22.50;47.40;;;;;;6213446;28;20021;-79
2022/06/17 07:31:54;;;;;;;9.23;2.70;;;22.50;47.20;;;;;;6205829;28;20029;-80
2022/06/17 07:34:55;;;;;;;15.25;2.30;;;22.60;47.20;;;;;;6201672;28;20062;-79
2022/06/17 07:41:16;;;;;;;6.82;2.38;;;22.60;47.10;;;;;;6198550;28;20552;-78
2022/06/17 07:44:18;;;;;;;9.77;2.47;;;22.60;46.90;;;;;;6218739;28;20037;-81
2022/06/17 07:47:22;;;;;;;8.23;2.33;;;22.60;46.80;;;;;;6223826;28;20049;-80
2022/06/17 07:50:30;;;;;;;5.20;2.42;;;22.60;46.80;;;;;;6183093;28;20026;-79
2022/06/17 07:53:32;;;;;;;8.45;2.65;;;22.60;46.80;;;;;;6207641;28;20030;-80
2022/06/17 07:56:33;;;;;;;8.80;2.17;;;22.60;46.60;;;;;;6220943;28;20384;-79
2022/06/17 07:59:34;;;;;;;10.18;2.20;;;22.60;46.30;;;;;;6207457;28;20070;-79
2022/06/17 08:02:35;;;;;;;6.13;2.22;;;22.60;46.30;;;;;;6179927;28;20049;-79
2022/06/17 08:05:37;;;;;;;4.68;1.95;;;22.60;46.30;;;;;;6203352;28;20029;-77
2022/06/17 08:08:39;;;;;;;4.30;1.95;;;22.60;46.20;;;;;;6215896;28;20109;-78
2022/06/17 08:11:40;;;;;;;9.23;2.10;;;22.60;46.20;;;;;;6198036;28;20033;-78
2022/06/17 08:14:43;;;;;;;6.50;2.00;;;22.70;46.20;;;;;;6184380;28;20022;-78
2022/06/17 08:17:44;;;;;;;5.57;1.88;;;22.60;46.00;;;;;;6195311;28;20497;-79
2022/06/17 08:20:45;;;;;;;5.47;1.65;;;22.60;45.90;;;;;;6216309;28;20057;-78
2022/06/17 08:23:46;;;;;;;4.45;1.95;;;22.60;45.80;;;;;;6214647;28;20081;-78
2022/06/17 08:26:46;;;;;;;5.75;1.67;;;22.70;45.80;;;;;;6194287;28;20334;-78
2022/06/17 08:29:47;;;;;;;3.08;1.83;;;22.60;45.70;;;;;;6210843;28;20444;-78
2022/06/17 08:32:51;;;;;;;3.50;1.60;;;22.70;45.80;;;;;;6221491;28;20113;-77
2022/06/17 08:35:52;;;;;;;5.05;2.63;;;22.60;45.60;;;;;;6200735;28;20072;-77
2022/06/17 08:39:10;;;;;;;5.70;1.83;;;22.70;46.30;;;;;;6195515;28;20051;-79
2022/06/17 08:42:47;;;;;;;4.30;1.83;;;22.70;46.30;;;;;;6199827;28;20057;-78
2022/06/17 08:46:26;;;;;;;5.13;1.67;;;22.70;45.50;;;;;;6207177;28;20034;-77
2022/06/17 08:49:45;;;;;;;8.35;1.88;;;22.70;45.40;;;;;;6204223;28;20093;-79
2022/06/17 08:53:03;;;;;;;5.15;1.85;;;22.70;45.50;;;;;;6221741;28;20033;-77
2022/06/17 08:56:19;;;;;;;5.10;1.95;;;22.70;45.40;;;;;;6200315;28;20140;-79
2022/06/17 08:59:34;;;;;;;6.43;1.60;;;22.70;45.50;;;;;;6197996;28;20105;-77
2022/06/17 09:02:52;;;;;;;4.32;2.05;;;22.70;45.50;;;;;;6222757;28;20084;-78
2022/06/17 09:06:21;;;;;;;5.13;1.55;;;22.70;45.40;;;;;;6202102;28;20109;-76
2022/06/17 09:09:40;;;;;;;2.42;1.60;;;22.70;45.40;;;;;;6190612;28;20026;-78
2022/06/17 09:12:57;;;;;;;2.85;1.83;;;22.80;45.40;;;;;;6196974;28;20088;-80
2022/06/17 09:16:06;;;;;;;3.95;1.75;;;22.70;45.30;;;;;;6213673;28;20029;-77
2022/06/17 09:19:10;;;;;;;1.92;1.20;;;22.70;46.00;;;;;;6220508;28;20021;-77
2022/06/17 09:22:17;;;;;;;2.28;1.45;;;22.70;45.30;;;;;;6196503;28;20033;-78
2022/06/17 09:25:21;;;;;;;4.30;1.38;;;22.80;45.30;;;;;;6206426;28;20030;-77
2022/06/17 09:28:57;;;;;;;2.38;1.40;;;22.80;45.30;;;;;;6218689;28;20022;-78
2022/06/17 09:32:22;;;;;;;2.28;1.35;;;22.80;45.20;;;;;;6197897;28;20096;-79
2022/06/17 09:35:29;;;;;;;3.03;1.63;;;22.80;45.20;;;;;;6197526;28;20459;-79
2022/06/17 09:38:44;;;;;;;2.15;1.20;;;22.80;45.20;;;;;;6197574;28;20094;-77
2022/06/17 09:41:55;;;;;;;4.30;1.38;;;22.80;45.10;;;;;;6214287;28;20018;-77
2022/06/17 09:45:25;;;;;;;1.98;1.30;;;22.80;45.10;;;;;;6200800;28;20077;-80
2022/06/17 09:48:35;;;;;;;1.85;1.20;;;22.80;45.10;;;;;;6221884;28;20072;-80
2022/06/17 09:51:48;;;;;;;6.35;1.50;;;22.80;45.10;;;;;;6204727;28;20487;-80
2022/06/17 09:55:15;;;;;;;2.65;1.52;;;22.80;45.10;;;;;;6211316;28;20018;-80
2022/06/17 09:58:50;;;;;;;3.08;1.30;;;22.80;45.00;;;;;;6176822;28;20125;-79
2022/06/17 10:01:54;;;;;;;2.28;1.10;;;22.80;45.00;;;;;;6181578;28;20048;-80
2022/06/17 10:04:56;;;;;;;1.60;1.23;;;22.80;44.90;;;;;;6214311;28;20441;-79
2022/06/17 10:08:26;;;;;;;1.80;1.30;;;22.80;44.90;;;;;;6201425;28;20097;-79
2022/06/17 10:12:03;;;;;;;1.88;1.20;;;22.80;44.90;;;;;;6183496;28;20037;-79
2022/06/17 10:15:12;;;;;;;3.15;1.45;;;22.80;45.10;;;;;;6199297;28;20022;-79
2022/06/17 10:18:38;;;;;;;2.20;1.33;;;22.80;45.00;;;;;;6209279;28;20097;-78
2022/06/17 10:22:02;;;;;;;2.20;1.50;;;22.80;45.00;;;;;;6190505;28;20030;-79
2022/06/17 10:25:06;;;;;;;2.60;1.25;;;22.80;45.00;;;;;;6192449;28;20093;-79
2022/06/17 10:28:25;;;;;;;2.95;1.10;;;22.80;44.90;;;;;;6200132;28;20046;-78
2022/06/17 10:31:37;;;;;;;2.08;1.45;;;22.80;44.90;;;;;;6200363;28;20085;-80
2022/06/17 10:34:46;;;;;;;1.52;1.17;;;22.80;44.90;;;;;;6205639;28;20026;-80
2022/06/17 10:37:47;;;;;;;3.08;1.60;;;22.80;44.90;;;;;;6203473;28;20054;-80
2022/06/17 10:40:48;;;;;;;2.05;1.33;;;22.80;44.90;;;;;;6201774;28;20030;-80
2022/06/17 10:43:52;;;;;;;1.33;1.20;;;22.80;44.90;;;;;;6199836;28;20057;-80
2022/06/17 10:47:05;;;;;;;1.95;1.23;;;22.80;44.80;;;;;;6192735;28;20030;-80
2022/06/17 10:50:13;;;;;;;1.42;1.20;;;22.80;44.80;;;;;;6223046;28;20512;-79
2022/06/17 10:53:33;;;;;;;1.85;1.60;;;22.80;44.70;;;;;;6207831;28;20022;-79
2022/06/17 10:56:41;;;;;;;1.10;1.00;;;22.80;44.80;;;;;;6211522;28;20393;-79
2022/06/17 10:59:43;;;;;;;1.73;1.35;;;22.80;44.80;;;;;;6210099;28;20033;-79
2022/06/17 11:02:44;;;;;;;1.55;1.45;;;22.80;44.80;;;;;;6223769;28;20022;-80
2022/06/17 11:05:55;;;;;;;2.00;1.35;;;22.80;44.70;;;;;;6224063;28;20030;-80
2022/06/17 11:08:59;;;;;;;2.45;1.40;;;22.90;44.80;;;;;;6199556;28;20101;-80
2022/06/17 11:12:02;;;;;;;3.78;1.60;;;22.90;44.80;;;;;;6199690;28;20022;-80
2022/06/17 11:15:32;;;;;;;1.73;1.17;;;22.80;44.60;;;;;;6199445;28;20027;-79
2022/06/17 11:18:35;;;;;;;2.13;1.55;;;22.90;44.70;;;;;;6219776;28;20469;-79
2022/06/17 11:21:41;;;;;;;1.42;1.13;;;22.90;44.70;;;;;;6213926;28;20048;-80
2022/06/17 11:24:47;;;;;;;2.30;1.40;;;22.90;44.80;;;;;;6199169;28;20512;-80
2022/06/17 11:28:14;;;;;;;2.00;1.52;;;22.80;44.60;;;;;;6195287;28;20057;-79
2022/06/17 11:31:39;;;;;;;1.90;1.25;;;22.80;44.60;;;;;;6208570;28;20040;-79
2022/06/17 11:34:49;;;;;;;2.60;1.53;;;22.80;44.60;;;;;;6199143;28;20034;-79
2022/06/17 11:37:51;;;;;;;1.73;1.40;;;22.80;45.40;;;;;;6195305;28;20597;-79
2022/06/17 11:40:55;;;;;;;1.98;1.45;;;22.90;44.60;;;;;;6197885;28;20022;-79
2022/06/17 11:44:09;;;;;;;1.70;1.45;;;22.80;44.50;;;;;;6216144;28;20141;-80
2022/06/17 11:47:10;;;;;;;1.77;1.40;;;22.80;44.60;;;;;;6213659;28;20037;-79
2022/06/17 11:50:15;;;;;;;1.95;1.30;;;22.90;44.70;;;;;;6205298;28;20026;-79
2022/06/17 11:53:17;;;;;;;2.90;1.60;;;22.80;44.60;;;;;;6216658;28;20034;-78
2022/06/17 11:56:34;;;;;;;1.95;1.52;;;22.90;44.70;;;;;;6222882;28;20034;-79
2022/06/17 11:59:41;;;;;;;2.20;1.42;;;22.90;44.60;;;;;;6198234;28;20485;-79
2022/06/17 12:03:00;;;;;;;1.30;1.15;;;22.90;44.60;;;;;;6197543;28;20039;-80
2022/06/17 12:06:03;;;;;;;1.95;1.40;;;22.90;44.60;;;;;;6184492;28;20022;-79
2022/06/17 12:09:12;;;;;;;2.33;1.60;;;22.90;44.60;;;;;;6219833;28;20057;-80
2022/06/17 12:12:15;;;;;;;1.50;1.40;;;22.80;44.60;;;;;;6220785;28;20037;-78
2022/06/17 12:15:30;;;;;;;1.73;1.30;;;22.90;44.50;;;;;;6203849;28;20026;-78
2022/06/17 12:18:35;;;;;;;1.70;1.50;;;22.90;44.50;;;;;;6218136;28;20026;-78
2022/06/17 12:22:12;;;;;;;4.32;1.25;;;22.90;44.30;;;;;;6222281;28;20045;-78
2022/06/17 12:25:29;;;;;;;1.73;1.27;;;23.00;44.20;;;;;;6202287;28;20050;-78
2022/06/17 12:28:45;;;;;;;2.47;1.42;;;23.00;44.10;;;;;;6220648;28;20401;-79
2022/06/17 12:31:54;;;;;;;2.15;1.60;;;23.00;44.10;;;;;;6216981;28;20072;-78
2022/06/17 12:34:59;;;;;;;3.03;1.38;;;23.00;44.10;;;;;;6220391;28;20033;-78
2022/06/17 12:38:03;;;;;;;1.58;1.40;;;23.00;44.00;;;;;;6216103;28;20052;-77
2022/06/17 12:41:17;;;;;;;2.95;1.60;;;23.00;44.00;;;;;;6217345;28;20025;-78
2022/06/17 12:44:21;;;;;;;1.90;1.55;;;23.00;44.10;;;;;;6220596;28;20654;-77
2022/06/17 12:47:48;;;;;;;2.53;1.42;;;23.00;44.00;;;;;;6211184;28;20044;-79
2022/06/17 12:54:38;;;;;;;2.63;1.40;;;23.10;44.20;;;;;;6216407;28;20034;-79
2022/06/17 12:57:58;;;;;;;1.83;1.20;;;23.00;44.30;;;;;;6219948;28;20024;-79
2022/06/17 13:01:07;;;;;;;1.77;1.27;;;23.00;44.30;;;;;;6196035;28;20056;-80
2022/06/17 13:04:32;;;;;;;1.85;1.40;;;23.00;44.30;;;;;;6200743;28;20064;-80
2022/06/17 13:07:43;;;;;;;1.60;1.38;;;23.00;44.30;;;;;;6220358;28;20389;-80
2022/06/17 13:11:04;;;;;;;1.98;1.50;;;23.00;44.40;;;;;;6146379;29;20039;-80
2022/06/17 13:14:37;;;;;;;1.55;1.40;;;23.00;44.20;;;;;;6148185;29;20055;-81
2022/06/17 13:18:04;;;;;;;2.00;1.33;;;23.00;44.20;;;;;;6130613;29;20134;-78
2022/06/17 13:21:13;;;;;;;2.08;1.23;;;23.00;44.10;;;;;;6125777;29;20073;-80
2022/06/17 13:24:48;;;;;;;1.98;1.27;;;23.00;44.10;;;;;;6135508;29;20086;-79
2022/06/17 13:27:48;;;;;;;1.80;1.60;;;23.00;44.10;;;;;;6146357;29;20130;-81
2022/06/17 13:30:56;;;;;;;1.25;1.10;;;23.00;44.10;;;;;;6137703;29;20100;-82
2022/06/17 13:34:13;;;;;;;1.95;1.30;;;23.00;44.10;;;;;;6131589;29;20020;-80
2022/06/17 13:37:19;;;;;;;1.80;1.20;;;23.00;44.00;;;;;;6144703;29;20296;-79
2022/06/17 13:40:23;;;;;;;1.75;1.50;;;23.00;44.00;;;;;;6157878;28;20073;-81
2022/06/17 13:43:40;;;;;;;2.33;1.60;;;23.00;44.00;;;;;;6226400;28;20034;-81
2022/06/17 13:46:52;;;;;;;2.58;1.52;;;23.00;43.90;;;;;;6199916;28;20639;-79
2022/06/17 13:50:24;;;;;;;2.40;1.83;;;23.00;43.90;;;;;;6224053;28;20489;-80
2022/06/17 13:54:06;;;;;;;1.85;1.30;;;23.00;44.00;;;;;;6198145;28;20072;-80
2022/06/17 13:57:22;;;;;;;1.67;1.40;;;23.00;44.00;;;;;;6196572;28;20116;-79
2022/06/17 14:00:29;;;;;;;2.20;1.83;;;23.00;43.90;;;;;;6221231;28;20473;-81
2022/06/17 14:03:55;;;;;;;1.90;1.50;;;23.00;43.90;;;;;;6208338;28;20030;-81
2022/06/17 14:06:58;;;;;;;;;;;23.00;44.00;;;;;;6202424;28;20069;-78
2022/06/17 14:10:29;;;;;;;1.95;1.42;;;23.00;44.00;;;;;;6211302;28;20376;-80
2022/06/17 14:13:33;;;;;;;1.50;1.33;;;23.00;44.00;;;;;;6208128;28;20113;-80
2022/06/17 14:16:34;;;;;;;3.00;1.90;;;23.00;43.90;;;;;;6225948;28;20477;-79
2022/06/17 14:19:55;;;;;;;2.05;1.52;;;23.10;44.00;;;;;;6215910;28;20072;-80
2022/06/17 14:23:14;;;;;;;5.05;1.80;;;23.10;43.90;;;;;;6182890;28;20038;-80
2022/06/17 14:26:39;;;;;;;6.65;1.83;;;23.00;43.90;;;;;;6198568;28;20548;-80
2022/06/17 14:29:40;;;;;;;2.08;1.70;;;23.10;43.90;;;;;;6215074;28;20022;-81
2022/06/17 14:32:46;;;;;;;2.45;1.75;;;23.00;43.90;;;;;;6224490;28;20117;-80
2022/06/17 14:35:52;;;;;;;1.60;1.27;;;23.00;44.00;;;;;;6211901;28;20038;-81
2022/06/17 14:39:03;;;;;;;6.80;1.88;;;23.10;44.00;;;;;;6199609;28;20085;-79
2022/06/17 14:42:26;;;;;;;2.33;1.90;;;23.00;43.90;;;;;;6201530;28;20076;-80
2022/06/17 14:45:52;;;;;;;2.25;1.85;;;23.00;44.00;;;;;;6222575;28;20473;-79
2022/06/17 14:49:34;;;;;;;3.20;1.67;;;23.00;44.00;;;;;;6223630;28;20358;-81
2022/06/17 14:52:37;;;;;;;3.00;2.08;;;23.00;43.90;;;;;;6179125;28;20457;-79
2022/06/17 14:56:05;;;;;;;2.30;1.73;;;23.00;43.90;;;;;;6211487;28;20088;-81
2022/06/17 14:59:35;;;;;;;2.50;1.70;;;23.00;43.90;;;;;;6198687;28;20073;-80
2022/06/17 15:02:43;;;;;;;2.20;1.75;;;23.00;43.90;;;;;;6223126;28;20034;-80
2022/06/17 15:05:44;;;;;;;1.90;1.70;;;23.00;43.90;;;;;;6212114;28;20029;-80
2022/06/17 15:08:49;;;;;;;1.95;1.65;;;23.00;43.90;;;;;;6198808;28;20018;-81
2022/06/17 15:12:01;;;;;;;2.67;1.83;;;23.10;43.90;;;;;;6198958;28;20116;-81
2022/06/17 15:15:08;;;;;;;1.92;1.65;;;23.00;43.80;;;;;;6222759;28;20046;-82
2022/06/17 15:18:19;;;;;;;2.38;1.90;;;23.00;44.10;;;;;;6198935;28;20177;-79
2022/06/17 15:21:31;;;;;;;1.70;1.55;;;22.90;45.00;;;;;;6207826;28;20473;-81
2022/06/17 15:24:38;;;;;;;2.35;1.83;;;22.80;45.70;;;;;;6201059;28;20054;-80
2022/06/17 15:27:49;;;;;;;2.40;1.75;;;22.70;46.30;;;;;;6180307;28;20033;-80
2022/06/17 15:30:50;;;;;;;2.25;1.80;;;22.60;46.40;;;;;;6197221;28;20050;-80
2022/06/17 15:33:56;;;;;;;2.50;1.85;;;22.60;46.70;;;;;;6196679;28;20034;-80
2022/06/17 15:36:58;;;;;;;2.70;2.00;;;22.60;46.80;;;;;;6211418;28;20042;-80
2022/06/17 15:40:17;;;;;;;2.65;1.77;;;22.60;46.90;;;;;;6222474;28;20113;-81
2022/06/17 15:43:23;;;;;;;1.75;1.58;;;22.60;46.90;;;;;;6208543;28;20554;-80
2022/06/17 15:46:37;;;;;;;2.20;1.63;;;22.50;46.80;;;;;;6204808;28;20022;-80
2022/06/17 15:49:40;;;;;;;1.95;1.70;;;22.50;46.80;;;;;;6221804;28;20018;-80
2022/06/17 15:52:42;;;;;;;2.15;1.65;;;22.50;46.90;;;;;;6201302;28;20029;-80
2022/06/17 15:55:44;;;;;;;2.05;1.70;;;22.50;46.80;;;;;;6195419;28;20512;-80
2022/06/17 15:58:46;;;;;;;1.95;1.45;;;22.50;46.90;;;;;;6218044;28;20072;-79
2022/06/17 16:01:54;;;;;;;2.35;1.98;;;22.50;46.90;;;;;;6194434;28;20121;-79
2022/06/17 16:05:04;;;;;;;3.60;1.80;;;22.50;46.80;;;;;;6197365;28;20375;-80
2022/06/17 16:08:12;;;;;;;2.47;1.40;;;22.50;47.00;;;;;;6198734;28;20049;-80
2022/06/17 16:11:15;;;;;;;2.35;2.00;;;22.50;47.00;;;;;;6218646;28;20022;-80
2022/06/17 16:14:32;;;;;;;2.10;1.88;;;22.50;47.20;;;;;;6179618;28;20477;-79
2022/06/17 16:17:36;;;;;;;1.73;1.45;;;22.50;47.00;;;;;;6192237;28;20116;-80
2022/06/17 16:20:38;;;;;;;1.73;1.50;;;22.50;47.00;;;;;;6221927;28;20026;-80
2022/06/17 16:23:41;;;;;;;1.98;1.50;;;22.40;47.00;;;;;;6199343;28;20042;-80
2022/06/17 16:26:45;;;;;;;2.35;1.95;;;22.40;47.00;;;;;;6196277;28;20024;-78
2022/06/17 16:29:53;;;;;;;2.28;1.67;;;22.50;47.10;;;;;;6200567;28;20175;-78
2022/06/17 16:33:19;;;;;;;4.07;1.60;;;22.50;47.20;;;;;;6187488;28;20026;-79
2022/06/17 16:36:30;;;;;;;1.95;1.77;;;22.40;47.10;;;;;;6195323;28;20417;-80
2022/06/17 16:39:37;;;;;;;2.13;1.65;;;22.40;47.30;;;;;;6195247;28;20034;-80